createdAt,value
2024-02-13T00:01:19.327Z,10.67
2024-02-13T00:03:47.503Z,9.40
2024-02-13T00:06:15.358Z,10.13
2024-02-13T00:08:45.686Z,9.67
2024-02-13T00:11:15.049Z,9.93
2024-02-13T00:13:47.277Z,9.73
2024-02-13T00:16:19.186Z,10.33
2024-02-13T00:18:48.199Z,9.30
2024-02-13T00:21:15.669Z,10.27
2024-02-13T00:23:43.379Z,9.33
2024-02-13T00:26:11.187Z,9.73
2024-02-13T00:28:38.859Z,8.93
2024-02-13T00:31:06.720Z,9.40
2024-02-13T00:33:36.055Z,9.53
2024-02-13T00:36:04.935Z,9.57
2024-02-13T00:38:32.333Z,8.90
2024-02-13T00:41:05.395Z,8.67
2024-02-13T00:43:33.278Z,8.70
2024-02-13T00:46:01.335Z,9.43
2024-02-13T00:48:31.269Z,9.87
2024-02-13T00:50:59.137Z,9.20
2024-02-13T00:53:26.893Z,9.13
2024-02-13T00:55:54.393Z,9.53
2024-02-13T00:58:22.015Z,9.33
2024-02-13T01:00:50.300Z,9.07
2024-02-13T01:03:17.756Z,9.80
2024-02-13T01:05:45.331Z,11.50
2024-02-13T01:08:12.906Z,18.67
2024-02-13T01:10:40.371Z,21.53
2024-02-13T01:13:08.643Z,23.83
2024-02-13T01:15:37.705Z,24.60
2024-02-13T01:18:06.193Z,25.70
2024-02-13T01:20:34.447Z,24.43
2024-02-13T01:23:02.176Z,24.17
2024-02-13T01:25:31.900Z,22.00
2024-02-13T01:44:29.688Z,10.33
2024-02-13T01:46:58.238Z,11.03
2024-02-13T01:49:30.236Z,10.97
2024-02-13T01:52:00.169Z,10.10
2024-02-13T01:54:30.182Z,10.50
2024-02-13T01:56:58.032Z,9.27
2024-02-13T01:59:27.785Z,9.63
2024-02-13T02:01:56.814Z,8.90
2024-02-13T02:04:27.471Z,9.80
2024-02-13T02:09:24.183Z,10.60
2024-02-13T02:11:52.153Z,10.30
2024-02-13T02:14:19.661Z,10.40
2024-02-13T02:16:47.079Z,10.20
2024-02-13T02:19:14.760Z,10.60
2024-02-13T02:21:42.102Z,10.40
2024-02-13T02:24:09.665Z,10.50
2024-02-13T02:26:37.605Z,10.43
2024-02-13T02:29:06.919Z,10.73
2024-02-13T02:31:34.344Z,10.00
2024-02-13T02:34:03.167Z,10.37
2024-02-13T02:36:30.627Z,10.97
2024-02-13T02:38:58.132Z,10.43
2024-02-13T02:41:25.580Z,10.80
2024-02-13T02:43:53.496Z,9.73
2024-02-13T02:46:20.794Z,11.17
2024-02-13T02:48:48.241Z,10.50
2024-02-13T02:51:15.636Z,10.60
2024-02-13T02:53:43.093Z,9.83
2024-02-13T02:56:17.069Z,10.13
2024-02-13T02:58:45.300Z,11.20
2024-02-13T03:01:13.253Z,10.67
2024-02-13T03:03:40.971Z,10.23
2024-02-13T03:06:08.614Z,10.03
2024-02-13T03:08:36.160Z,11.23
2024-02-13T03:11:03.731Z,10.90
2024-02-13T03:13:33.680Z,10.83
2024-02-13T03:16:01.199Z,10.07
2024-02-13T03:18:28.929Z,11.13
2024-02-13T03:20:56.565Z,10.30
2024-02-13T03:23:24.183Z,10.80
2024-02-13T03:25:51.518Z,10.67
2024-02-13T03:28:18.938Z,10.40
2024-02-13T03:30:46.412Z,11.17
2024-02-13T03:33:14.084Z,9.87
2024-02-13T03:35:41.622Z,10.53
2024-02-13T03:38:09.106Z,9.63
2024-02-13T03:40:37.115Z,9.23
2024-02-13T03:43:05.238Z,9.10
2024-02-13T03:45:32.667Z,8.83
2024-02-13T03:48:00.420Z,9.57
2024-02-13T03:50:29.254Z,9.23
2024-02-13T03:52:57.358Z,9.30
2024-02-13T03:55:24.896Z,9.47
2024-02-13T03:57:52.290Z,10.17
2024-02-13T04:00:19.944Z,9.43
2024-02-13T04:02:47.722Z,10.07
2024-02-13T04:05:16.154Z,10.03
2024-02-13T04:07:44.345Z,10.43
2024-02-13T04:10:11.828Z,10.30
2024-02-13T04:12:39.431Z,9.30
2024-02-13T04:15:07.557Z,10.57
2024-02-13T04:17:35.068Z,10.10
2024-02-13T04:20:04.571Z,9.63
2024-02-13T04:22:32.044Z,9.77
2024-02-13T04:24:59.518Z,9.20
2024-02-13T04:27:27.022Z,9.63
2024-02-13T04:29:54.942Z,9.53
2024-02-13T04:32:22.400Z,9.67
2024-02-13T04:34:49.979Z,8.97
2024-02-13T04:37:17.359Z,8.70
2024-02-13T04:39:44.671Z,8.90
2024-02-13T04:42:12.512Z,9.70
2024-02-13T04:44:40.155Z,8.57
2024-02-13T04:47:07.849Z,8.63
2024-02-13T04:49:35.188Z,8.10
2024-02-13T04:52:02.678Z,8.13
2024-02-13T04:54:30.101Z,7.93
2024-02-13T04:56:58.221Z,8.40
2024-02-13T04:59:25.950Z,7.97
2024-02-13T05:01:53.464Z,8.63
2024-02-13T05:04:20.773Z,7.93
2024-02-13T05:07:06.951Z,8.47
2024-02-13T05:09:34.673Z,7.97
2024-02-13T05:12:02.155Z,9.83
2024-02-13T05:14:29.659Z,8.43
2024-02-13T05:16:57.146Z,8.67
2024-02-13T05:19:24.546Z,7.67
2024-02-13T05:21:52.172Z,8.20
2024-02-13T05:24:19.883Z,8.63
2024-02-13T05:26:47.431Z,8.20
2024-02-13T05:29:15.091Z,7.90
2024-02-13T05:31:42.884Z,7.83
2024-02-13T05:34:11.420Z,7.77
2024-02-13T05:36:38.985Z,7.80
2024-02-13T05:39:06.602Z,7.63
2024-02-13T05:41:34.163Z,8.00
2024-02-13T05:44:04.490Z,7.90
2024-02-13T05:46:32.015Z,7.37
2024-02-13T05:49:01.471Z,7.53
2024-02-13T05:51:29.838Z,7.37
2024-02-13T05:53:59.253Z,7.13
2024-02-13T05:56:28.332Z,7.17
2024-02-13T05:58:59.117Z,7.10
2024-02-13T06:01:27.074Z,7.07
2024-02-13T06:03:58.227Z,6.53
2024-02-13T06:06:26.761Z,6.13
2024-02-13T06:08:54.713Z,6.40
2024-02-13T06:11:24.797Z,7.03
2024-02-13T06:13:52.792Z,6.40
2024-02-13T06:16:20.293Z,6.67
2024-02-13T06:18:48.229Z,6.80
2024-02-13T06:21:22.343Z,7.03
2024-02-13T06:23:51.834Z,6.60
2024-02-13T06:26:20.159Z,6.93
2024-02-13T06:28:47.670Z,6.87
2024-02-13T06:31:15.489Z,6.97
2024-02-13T06:33:43.522Z,6.67
2024-02-13T06:36:11.476Z,6.30
2024-02-13T06:38:39.114Z,5.93
2024-02-13T06:41:06.880Z,6.57
2024-02-13T06:43:35.104Z,7.47
2024-02-13T06:46:03.401Z,6.50
2024-02-13T06:48:32.683Z,6.13
2024-02-13T06:51:00.452Z,6.10
2024-02-13T06:53:28.412Z,6.43
2024-02-13T06:55:56.422Z,6.77
2024-02-13T06:58:23.727Z,6.50
2024-02-13T07:00:52.530Z,6.20
2024-02-13T07:03:20.775Z,6.13
2024-02-13T07:05:48.665Z,6.50
2024-02-13T07:08:16.448Z,6.67
2024-02-13T07:10:43.996Z,6.43
2024-02-13T07:13:11.417Z,5.80
2024-02-13T07:15:38.968Z,6.13
2024-02-13T07:18:07.684Z,6.53
2024-02-13T07:20:36.040Z,6.77
2024-02-13T07:23:04.262Z,6.57
2024-02-13T07:25:31.832Z,6.60
2024-02-13T07:27:59.594Z,6.57
2024-02-13T07:30:27.371Z,5.97
2024-02-13T07:32:56.441Z,6.13
2024-02-13T07:35:24.267Z,6.30
2024-02-13T07:37:51.730Z,6.63
2024-02-13T07:40:19.179Z,6.13
2024-02-13T07:42:46.980Z,6.37
2024-02-13T07:45:14.372Z,6.27
2024-02-13T07:47:42.822Z,7.30
2024-02-13T07:50:11.430Z,6.80
2024-02-13T07:52:39.237Z,6.67
2024-02-13T07:55:07.294Z,6.07
2024-02-13T07:57:36.254Z,6.03
2024-02-13T08:00:05.314Z,5.43
2024-02-13T08:02:32.924Z,6.10
2024-02-13T08:05:00.875Z,5.50
2024-02-13T08:07:29.449Z,6.03
2024-02-13T08:09:57.086Z,5.30
2024-02-13T08:12:25.568Z,6.37
2024-02-13T08:14:53.304Z,5.13
2024-02-13T08:17:20.863Z,5.70
2024-02-13T08:19:48.472Z,5.23
2024-02-13T08:22:19.300Z,5.37
2024-02-13T08:24:46.841Z,5.10
2024-02-13T08:27:16.210Z,5.43
2024-02-13T08:29:43.889Z,5.40
2024-02-13T08:32:11.761Z,5.23
2024-02-13T08:34:42.224Z,4.87
2024-02-13T08:37:09.665Z,6.07
2024-02-13T08:39:37.722Z,5.10
2024-02-13T08:42:05.496Z,5.20
2024-02-13T08:44:35.979Z,5.47
2024-02-13T08:47:03.876Z,5.67
2024-02-13T08:49:31.471Z,5.13
2024-02-13T08:51:59.023Z,5.20
2024-02-13T08:54:27.102Z,5.70
2024-02-13T08:56:54.599Z,5.70
2024-02-13T08:59:22.074Z,5.30
2024-02-13T09:01:49.675Z,4.70
2024-02-13T09:04:17.171Z,5.67
2024-02-13T09:06:44.643Z,5.43
2024-02-13T09:09:13.886Z,5.57
2024-02-13T09:11:41.350Z,5.43
2024-02-13T09:14:10.868Z,5.47
2024-02-13T09:16:38.257Z,5.33
2024-02-13T09:19:05.831Z,5.90
2024-02-13T09:21:33.379Z,5.03
2024-02-13T09:24:00.932Z,5.40
2024-02-13T09:26:28.438Z,5.40
2024-02-13T09:28:55.838Z,5.17
2024-02-13T09:31:23.315Z,4.93
2024-02-13T09:33:50.946Z,4.87
2024-02-13T09:36:21.768Z,4.70
2024-02-13T09:38:49.542Z,5.33
2024-02-13T09:41:18.223Z,4.87
2024-02-13T09:43:50.168Z,5.00
2024-02-13T09:46:19.175Z,5.33
2024-02-13T09:48:49.742Z,5.07
2024-02-13T09:51:19.486Z,4.80
2024-02-13T09:53:48.961Z,5.00
2024-02-13T09:56:17.411Z,5.40
2024-02-13T09:58:48.318Z,4.90
2024-02-13T10:01:16.220Z,5.00
2024-02-13T10:03:45.587Z,5.10
2024-02-13T10:06:14.238Z,4.50
2024-02-13T10:08:42.358Z,5.03
2024-02-13T10:11:13.748Z,4.83
2024-02-13T10:13:46.876Z,4.03
2024-02-13T10:16:29.886Z,4.53
2024-02-13T10:18:59.424Z,4.67
2024-02-13T10:21:28.464Z,4.67
2024-02-13T10:24:15.791Z,4.30
2024-02-13T10:26:44.198Z,4.57
2024-02-13T10:29:13.535Z,4.40
2024-02-13T10:31:42.871Z,4.20
2024-02-13T10:34:12.960Z,3.47
2024-02-13T10:36:47.140Z,4.23
2024-02-13T10:39:16.328Z,4.00
2024-02-13T10:41:47.354Z,3.97
2024-02-13T10:44:22.362Z,3.73
2024-02-13T10:46:51.895Z,4.30
2024-02-13T10:49:54.338Z,3.90
2024-02-13T10:52:23.024Z,3.60
2024-02-13T10:54:52.085Z,3.80
2024-02-13T10:57:19.803Z,4.10
2024-02-13T10:59:50.223Z,3.20
2024-02-13T11:02:20.533Z,3.77
2024-02-13T11:04:50.309Z,3.20
2024-02-13T11:07:19.653Z,3.00
2024-02-13T11:09:47.174Z,3.27
2024-02-13T11:12:15.920Z,3.00
2024-02-13T11:14:44.086Z,2.70
2024-02-13T11:17:14.637Z,2.63
2024-02-13T11:19:46.502Z,2.77
2024-02-13T11:22:23.535Z,2.73
2024-02-13T11:24:53.450Z,2.40
2024-02-13T11:27:30.196Z,2.57
2024-02-13T11:30:01.053Z,2.73
2024-02-13T11:32:38.926Z,2.67
2024-02-13T11:35:12.139Z,2.63
2024-02-13T11:37:42.914Z,3.30
2024-02-13T11:40:14.342Z,2.60
2024-02-13T11:42:42.793Z,2.70
2024-02-13T11:45:21.694Z,3.00
2024-02-13T11:47:50.618Z,2.90
2024-02-13T11:50:19.905Z,2.67
2024-02-13T11:52:49.236Z,2.57
2024-02-13T11:55:18.220Z,2.80
2024-02-13T11:57:48.605Z,3.13
2024-02-13T12:00:22.913Z,2.83
2024-02-13T12:02:55.714Z,2.83
2024-02-13T12:05:25.563Z,2.90
2024-02-13T12:07:54.508Z,3.10
2024-02-13T12:10:22.512Z,3.30
2024-02-13T12:12:51.210Z,3.67
2024-02-13T12:15:23.746Z,3.30
2024-02-13T12:18:00.873Z,3.40
2024-02-13T12:20:30.607Z,3.53
2024-02-13T12:23:04.510Z,3.30
2024-02-13T12:25:31.996Z,3.60
2024-02-13T12:28:06.308Z,3.23
2024-02-13T12:30:37.356Z,3.40
2024-02-13T12:33:08.816Z,3.87
2024-02-13T12:35:38.006Z,3.10
2024-02-13T12:38:15.674Z,3.40
2024-02-13T12:40:45.494Z,3.20
2024-02-13T12:43:17.289Z,3.47
2024-02-13T12:45:45.905Z,3.33
2024-02-13T12:48:14.068Z,3.47
2024-02-13T12:50:43.171Z,3.10
2024-02-13T12:53:10.995Z,3.70
2024-02-13T12:55:42.046Z,3.03
2024-02-13T12:58:09.538Z,3.10
2024-02-13T13:00:36.880Z,3.60
2024-02-13T13:03:05.804Z,3.50
2024-02-13T13:05:33.404Z,3.50
2024-02-13T13:08:05.669Z,3.37
2024-02-13T13:10:34.118Z,3.50
2024-02-13T13:13:01.921Z,3.37
2024-02-13T13:15:30.116Z,3.23
2024-02-13T13:17:58.478Z,3.63
2024-02-13T13:20:29.297Z,3.60
2024-02-13T13:22:59.010Z,3.70
2024-02-13T13:25:30.171Z,3.70
2024-02-13T13:28:06.280Z,3.70
2024-02-13T13:30:34.885Z,3.40
2024-02-13T13:33:04.904Z,3.70
2024-02-13T13:35:33.187Z,3.83
2024-02-13T13:38:00.751Z,3.80
2024-02-13T13:40:34.407Z,3.30
2024-02-13T13:43:02.301Z,3.30
2024-02-13T13:45:30.427Z,3.93
2024-02-13T13:47:58.207Z,3.20
2024-02-13T13:50:26.091Z,3.17
2024-02-13T13:52:54.970Z,3.17
2024-02-13T13:55:22.524Z,3.43
2024-02-13T13:57:49.903Z,3.37
2024-02-13T14:00:21.888Z,3.40
2024-02-13T14:02:49.538Z,3.40
2024-02-13T14:05:19.159Z,3.43
2024-02-13T14:07:46.703Z,3.37
2024-02-13T14:10:14.119Z,3.50
2024-02-13T14:12:44.257Z,3.80
2024-02-13T14:15:12.448Z,3.33
2024-02-13T14:17:43.194Z,3.70
2024-02-13T14:20:15.623Z,3.13
2024-02-13T14:22:45.954Z,3.10
2024-02-13T14:25:13.998Z,3.13
2024-02-13T14:27:41.335Z,3.03
2024-02-13T14:30:09.057Z,3.20
2024-02-13T14:32:36.698Z,2.90
2024-02-13T14:35:04.512Z,3.10
2024-02-13T14:37:31.974Z,3.20
2024-02-13T14:39:59.497Z,2.70
2024-02-13T14:42:27.299Z,2.77
2024-02-13T14:44:55.768Z,3.10
2024-02-13T14:47:24.541Z,2.80
2024-02-13T14:49:52.144Z,3.10
2024-02-13T14:52:21.346Z,2.70
2024-02-13T14:54:49.699Z,3.10
2024-02-13T14:57:17.318Z,3.27
2024-02-13T14:59:46.404Z,2.80
2024-02-13T15:02:14.488Z,2.63
2024-02-13T15:04:42.504Z,3.17
2024-02-13T15:07:10.192Z,3.10
2024-02-13T15:09:37.641Z,2.70
2024-02-13T15:12:07.159Z,3.13
2024-02-13T15:14:35.496Z,3.10
2024-02-13T15:17:02.979Z,3.00
2024-02-13T15:19:30.815Z,3.10
2024-02-13T15:21:59.257Z,3.13
2024-02-13T15:24:26.704Z,3.20
2024-02-13T15:26:54.121Z,3.13
2024-02-13T15:29:23.532Z,3.30
2024-02-13T15:31:51.002Z,2.87
2024-02-13T15:34:18.677Z,2.97
2024-02-13T15:37:11.021Z,3.53
2024-02-13T15:39:57.356Z,3.30
2024-02-13T15:42:34.757Z,3.10
2024-02-13T15:45:20.879Z,3.23
2024-02-13T15:47:50.015Z,2.87
2024-02-13T15:50:19.690Z,3.00
2024-02-13T15:52:49.523Z,2.97
2024-02-13T15:55:20.118Z,3.17
2024-02-13T15:57:48.332Z,3.07
2024-02-13T16:00:16.166Z,2.90
2024-02-13T16:02:47.663Z,2.90
2024-02-13T16:05:16.784Z,3.00
2024-02-13T16:07:45.353Z,3.30
2024-02-13T16:10:16.401Z,3.03
2024-02-13T16:12:44.591Z,2.80
2024-02-13T16:15:13.489Z,3.00
2024-02-13T16:17:41.541Z,3.17
2024-02-13T16:20:10.596Z,3.20
2024-02-13T16:22:41.273Z,3.00
2024-02-13T16:25:13.397Z,3.07
2024-02-13T16:27:41.309Z,3.20
2024-02-13T16:30:09.385Z,3.30
2024-02-13T16:32:40.618Z,3.40
2024-02-13T16:35:10.427Z,3.60
2024-02-13T16:37:41.283Z,3.20
2024-02-13T16:40:12.436Z,3.80
2024-02-13T16:42:40.164Z,3.47
2024-02-13T16:45:08.674Z,3.63
2024-02-13T16:47:38.383Z,3.03
2024-02-13T16:50:13.420Z,3.70
2024-02-13T16:52:41.436Z,3.90
2024-02-13T16:55:09.380Z,3.70
2024-02-13T16:57:41.924Z,3.47
2024-02-13T17:00:12.235Z,4.00
2024-02-13T17:02:40.826Z,3.23
2024-02-13T17:05:12.891Z,4.97
2024-02-13T17:07:41.778Z,4.07
2024-02-13T17:10:10.602Z,4.00
2024-02-13T17:12:38.942Z,3.80
2024-02-13T17:15:11.243Z,3.97
2024-02-13T17:17:43.154Z,4.80
2024-02-13T17:20:14.953Z,4.80
2024-02-13T17:22:43.314Z,3.97
2024-02-13T17:25:12.068Z,5.90
2024-02-13T17:27:42.268Z,6.93
2024-02-13T17:30:14.168Z,6.70
2024-02-13T17:32:45.353Z,6.50
2024-02-13T17:35:13.409Z,7.50
2024-02-13T17:37:40.905Z,7.43
2024-02-13T17:40:12.732Z,6.63
2024-02-13T17:42:40.815Z,6.70
2024-02-13T17:45:09.547Z,6.33
2024-02-13T17:47:38.976Z,6.67
2024-02-13T17:50:09.033Z,6.00
2024-02-13T17:52:37.091Z,6.40
2024-02-13T17:55:08.530Z,6.77
2024-02-13T17:57:39.638Z,5.90
2024-02-13T18:00:08.531Z,4.90
2024-02-13T18:02:42.110Z,4.73
2024-02-13T18:05:10.622Z,5.30
2024-02-13T18:07:38.180Z,4.70
2024-02-13T18:10:06.088Z,5.23
2024-02-13T18:12:33.569Z,4.67
2024-02-13T18:15:03.939Z,4.87
2024-02-13T18:17:31.485Z,4.77
2024-02-13T18:19:59.369Z,4.60
2024-02-13T18:22:26.798Z,5.27
2024-02-13T18:24:54.733Z,5.17
2024-02-13T18:27:22.256Z,5.00
2024-02-13T18:29:50.906Z,5.20
2024-02-13T18:32:19.129Z,5.10
2024-02-13T18:34:46.852Z,5.50
2024-02-13T18:37:14.578Z,4.90
2024-02-13T18:39:45.862Z,5.90
2024-02-13T18:42:13.900Z,6.00
2024-02-13T18:44:41.304Z,5.23
2024-02-13T18:47:13.561Z,6.57
2024-02-13T18:49:41.194Z,5.33
2024-02-13T18:52:09.461Z,5.63
2024-02-13T18:54:38.537Z,6.33
2024-02-13T18:57:09.148Z,6.27
2024-02-13T18:59:36.696Z,6.30
2024-02-13T19:02:04.361Z,11.60
2024-02-13T19:04:32.213Z,7.53
2024-02-13T19:07:00.596Z,9.43
2024-02-13T19:09:31.422Z,7.23
2024-02-13T19:11:59.580Z,6.80
2024-02-13T19:14:27.207Z,7.50
2024-02-13T19:16:54.757Z,7.50
2024-02-13T19:19:22.207Z,8.03
2024-02-13T19:21:49.843Z,8.20
2024-02-13T19:24:17.582Z,7.87
2024-02-13T19:26:45.185Z,8.10
2024-02-13T19:29:12.927Z,8.40
2024-02-13T19:31:42.532Z,8.40
2024-02-13T19:34:10.357Z,8.00
2024-02-13T19:36:38.042Z,7.70
2024-02-13T19:39:05.454Z,8.47
2024-02-13T19:41:32.936Z,8.87
2024-02-13T19:44:00.630Z,8.57
2024-02-13T19:46:28.134Z,9.00
2024-02-13T19:48:55.518Z,9.07
2024-02-13T19:51:23.642Z,8.77
2024-02-13T19:53:52.631Z,9.30
2024-02-13T19:56:20.172Z,8.37
2024-02-13T19:58:47.653Z,8.70
2024-02-13T20:01:15.735Z,9.97
2024-02-13T20:03:43.313Z,9.30
2024-02-13T20:06:11.002Z,9.77
2024-02-13T20:08:40.032Z,10.37
2024-02-13T20:11:07.819Z,9.70
2024-02-13T20:13:37.123Z,8.57
2024-02-13T20:16:05.039Z,8.97
2024-02-13T20:18:34.011Z,8.97
2024-02-13T20:21:02.488Z,9.83
2024-02-13T20:23:29.993Z,9.00
2024-02-13T20:25:58.456Z,8.73
2024-02-13T20:28:25.809Z,8.80
2024-02-13T20:30:53.272Z,9.53
2024-02-13T20:33:20.838Z,8.40
2024-02-13T20:36:03.691Z,8.03
2024-02-13T20:38:32.007Z,7.67
2024-02-13T20:40:59.420Z,7.53
2024-02-13T20:43:30.343Z,7.20
2024-02-13T20:45:59.287Z,7.37
2024-02-13T20:48:27.132Z,6.40
2024-02-13T20:50:55.244Z,7.10
2024-02-13T20:53:23.579Z,6.87
2024-02-13T20:55:54.366Z,6.30
2024-02-13T20:58:21.978Z,6.57
2024-02-13T21:00:50.945Z,5.80
2024-02-13T21:03:21.437Z,5.90
2024-02-13T21:05:51.645Z,6.73
2024-02-13T21:08:19.258Z,6.10
2024-02-13T21:10:48.195Z,6.13
2024-02-13T21:13:15.654Z,6.80
2024-02-13T21:15:43.662Z,6.03
2024-02-13T21:18:11.061Z,6.67
2024-02-13T21:20:47.317Z,6.70
2024-02-13T21:23:33.680Z,6.13
2024-02-13T21:26:01.055Z,6.17
2024-02-13T21:28:28.661Z,6.53
2024-02-13T21:30:56.009Z,6.40
2024-02-13T21:33:24.019Z,6.07
2024-02-13T21:35:51.936Z,6.60
2024-02-13T21:38:19.658Z,6.77
2024-02-13T21:40:47.029Z,6.33
2024-02-13T21:43:14.451Z,7.33
2024-02-13T21:45:42.132Z,6.30
2024-02-13T21:48:12.783Z,6.37
2024-02-13T21:50:42.260Z,6.47
2024-02-13T21:53:09.731Z,6.70
2024-02-13T21:55:37.349Z,6.97
2024-02-13T21:58:04.985Z,6.83
2024-02-13T22:00:33.396Z,7.07
2024-02-13T22:03:06.800Z,6.70
2024-02-13T22:05:34.512Z,12.07
2024-02-13T22:08:02.000Z,7.87
2024-02-13T22:10:29.348Z,6.73
2024-02-13T22:12:57.313Z,6.90
2024-02-13T22:15:24.739Z,7.43
2024-02-13T22:17:52.274Z,7.53
2024-02-13T22:20:20.029Z,7.33
2024-02-13T22:22:47.391Z,7.00
2024-02-13T22:25:14.850Z,7.27
2024-02-13T22:27:42.476Z,7.47
2024-02-13T22:30:10.260Z,7.57
2024-02-13T22:32:38.254Z,7.37
2024-02-13T22:35:06.377Z,7.80
2024-02-13T22:37:33.885Z,8.20
2024-02-13T22:40:01.256Z,7.47
2024-02-13T22:42:28.796Z,8.07
2024-02-13T22:44:56.200Z,7.67
2024-02-13T22:47:23.573Z,7.63
2024-02-13T22:49:51.186Z,7.33
2024-02-13T22:52:18.802Z,7.80
2024-02-13T22:54:46.351Z,7.20
2024-02-13T22:57:14.236Z,7.90
2024-02-13T22:59:41.884Z,7.63
2024-02-13T23:02:10.777Z,8.00
2024-02-13T23:04:38.381Z,7.63
2024-02-13T23:07:05.816Z,7.60
2024-02-13T23:09:33.425Z,7.27
2024-02-13T23:12:00.985Z,7.40
2024-02-13T23:14:35.467Z,7.97
2024-02-13T23:17:05.321Z,7.00
2024-02-13T23:19:34.526Z,7.67
2024-02-13T23:22:04.024Z,6.90
2024-02-13T23:24:33.304Z,7.30
2024-02-13T23:27:00.869Z,7.00
2024-02-13T23:29:29.647Z,7.20
2024-02-13T23:31:59.305Z,6.63
2024-02-13T23:34:26.932Z,6.60
2024-02-13T23:36:54.334Z,6.57
2024-02-13T23:39:23.234Z,6.73
2024-02-13T23:41:51.125Z,6.50
2024-02-13T23:44:18.554Z,7.00
2024-02-13T23:46:46.227Z,6.80
2024-02-13T23:49:14.254Z,7.10
2024-02-13T23:51:42.045Z,6.60
2024-02-13T23:54:10.216Z,6.30
2024-02-13T23:56:37.697Z,6.80
2024-02-13T23:59:07.024Z,6.67
